Terminal Aerodrome Forecast
Issued by NWS Pocatello, ID

Home | Current Version | Previous Version | Text Only | Print | Product List | Glossary On
Versions: 1 2 3 4 5 6 7 8 9 10 11 12 13 14 15
000
FTUS45 KPIH 282320
TAFBYI
TAF
KBYI 282320Z 2900/2924 27010KT P6SM FEW070 SCT250
     FM290400 23005KT P6SM SCT150
     FM291800 08005KT P6SM SCT250=

USA.gov is the U.S. government's official web portal to all federal, state and local government web resources and services.